sensor_id;sensor_type;location;lat;lon;timestamp;P1;durP1;ratioP1;P2;durP2;ratioP2
26774;SDS011;14362;51.902;7.626;2023-08-06T00:03:00;10.77;;;9.68;;
26774;SDS011;14362;51.902;7.626;2023-08-06T00:07:02;10.48;;;9.43;;
26774;SDS011;14362;51.902;7.626;2023-08-06T00:11:03;10.15;;;9.10;;
26774;SDS011;14362;51.902;7.626;2023-08-06T00:15:05;11.25;;;9.65;;
26774;SDS011;14362;51.902;7.626;2023-08-06T00:19:08;11.52;;;9.75;;
26774;SDS011;14362;51.902;7.626;2023-08-06T00:23:10;10.50;;;9.43;;
26774;SDS011;14362;51.902;7.626;2023-08-06T00:27:11;10.88;;;9.05;;
26774;SDS011;14362;51.902;7.626;2023-08-06T00:31:13;12.80;;;10.30;;
26774;SDS011;14362;51.902;7.626;2023-08-06T00:35:15;11.15;;;10.05;;
26774;SDS011;14362;51.902;7.626;2023-08-06T00:39:17;12.32;;;11.15;;
26774;SDS011;14362;51.902;7.626;2023-08-06T00:43:19;12.05;;;10.95;;
26774;SDS011;14362;51.902;7.626;2023-08-06T00:47:20;13.48;;;12.00;;
26774;SDS011;14362;51.902;7.626;2023-08-06T00:51:23;13.40;;;12.00;;
26774;SDS011;14362;51.902;7.626;2023-08-06T00:55:25;12.15;;;10.98;;
26774;SDS011;14362;51.902;7.626;2023-08-06T00:59:27;14.75;;;12.20;;
26774;SDS011;14362;51.902;7.626;2023-08-06T01:03:29;11.85;;;10.73;;
26774;SDS011;14362;51.902;7.626;2023-08-06T01:07:37;15.50;;;12.77;;
26774;SDS011;14362;51.902;7.626;2023-08-06T01:11:52;15.07;;;13.38;;
26774;SDS011;14362;51.902;7.626;2023-08-06T01:16:00;14.82;;;13.32;;
26774;SDS011;14362;51.902;7.626;2023-08-06T01:20:03;14.52;;;13.10;;
26774;SDS011;14362;51.902;7.626;2023-08-06T01:24:07;13.65;;;12.23;;
26774;SDS011;14362;51.902;7.626;2023-08-06T01:28:10;13.98;;;12.57;;
26774;SDS011;14362;51.902;7.626;2023-08-06T01:32:17;13.98;;;12.68;;
26774;SDS011;14362;51.902;7.626;2023-08-06T01:36:21;15.13;;;13.50;;
26774;SDS011;14362;51.902;7.626;2023-08-06T01:40:25;16.42;;;14.13;;
26774;SDS011;14362;51.902;7.626;2023-08-06T01:44:28;14.57;;;13.07;;
26774;SDS011;14362;51.902;7.626;2023-08-06T01:48:29;16.77;;;14.15;;
26774;SDS011;14362;51.902;7.626;2023-08-06T01:52:31;14.45;;;13.02;;
26774;SDS011;14362;51.902;7.626;2023-08-06T01:56:34;14.57;;;13.10;;
26774;SDS011;14362;51.902;7.626;2023-08-06T02:00:35;14.10;;;12.80;;
26774;SDS011;14362;51.902;7.626;2023-08-06T02:04:36;13.25;;;11.85;;
26774;SDS011;14362;51.902;7.626;2023-08-06T02:08:38;13.13;;;11.73;;
26774;SDS011;14362;51.902;7.626;2023-08-06T02:12:41;13.75;;;12.30;;
26774;SDS011;14362;51.902;7.626;2023-08-06T02:16:42;13.43;;;11.95;;
26774;SDS011;14362;51.902;7.626;2023-08-06T02:20:44;14.75;;;12.80;;
26774;SDS011;14362;51.902;7.626;2023-08-06T02:24:56;12.70;;;11.50;;
26774;SDS011;14362;51.902;7.626;2023-08-06T02:28:59;13.68;;;12.23;;
26774;SDS011;14362;51.902;7.626;2023-08-06T02:33:00;12.65;;;11.48;;
26774;SDS011;14362;51.902;7.626;2023-08-06T02:37:02;13.77;;;12.38;;
26774;SDS011;14362;51.902;7.626;2023-08-06T02:41:04;13.00;;;11.77;;
26774;SDS011;14362;51.902;7.626;2023-08-06T02:45:07;13.40;;;12.15;;
26774;SDS011;14362;51.902;7.626;2023-08-06T02:49:09;13.82;;;12.43;;
26774;SDS011;14362;51.902;7.626;2023-08-06T02:53:11;14.07;;;12.60;;
26774;SDS011;14362;51.902;7.626;2023-08-06T02:57:12;12.85;;;11.75;;
26774;SDS011;14362;51.902;7.626;2023-08-06T03:01:15;13.50;;;12.15;;
26774;SDS011;14362;51.902;7.626;2023-08-06T03:05:16;16.85;;;12.27;;
26774;SDS011;14362;51.902;7.626;2023-08-06T03:09:18;13.32;;;11.93;;
26774;SDS011;14362;51.902;7.626;2023-08-06T03:13:19;13.07;;;11.73;;
26774;SDS011;14362;51.902;7.626;2023-08-06T03:17:22;13.48;;;11.95;;
26774;SDS011;14362;51.902;7.626;2023-08-06T03:21:24;14.55;;;11.50;;
26774;SDS011;14362;51.902;7.626;2023-08-06T03:25:25;13.00;;;11.75;;
26774;SDS011;14362;51.902;7.626;2023-08-06T03:29:27;13.30;;;11.88;;
26774;SDS011;14362;51.902;7.626;2023-08-06T03:33:29;12.75;;;10.82;;
26774;SDS011;14362;51.902;7.626;2023-08-06T03:37:31;12.90;;;11.52;;
26774;SDS011;14362;51.902;7.626;2023-08-06T03:41:32;12.38;;;11.18;;
26774;SDS011;14362;51.902;7.626;2023-08-06T03:45:34;13.05;;;11.68;;
26774;SDS011;14362;51.902;7.626;2023-08-06T03:49:36;15.93;;;11.80;;
26774;SDS011;14362;51.902;7.626;2023-08-06T03:53:38;11.90;;;10.45;;
26774;SDS011;14362;51.902;7.626;2023-08-06T03:57:39;12.68;;;11.57;;
26774;SDS011;14362;51.902;7.626;2023-08-06T04:01:41;12.95;;;11.57;;
26774;SDS011;14362;51.902;7.626;2023-08-06T04:05:43;11.02;;;10.02;;
26774;SDS011;14362;51.902;7.626;2023-08-06T04:09:52;11.77;;;10.38;;
26774;SDS011;14362;51.902;7.626;2023-08-06T04:13:54;12.05;;;9.88;;
26774;SDS011;14362;51.902;7.626;2023-08-06T04:17:56;10.40;;;9.32;;
26774;SDS011;14362;51.902;7.626;2023-08-06T04:21:59;13.65;;;9.80;;
26774;SDS011;14362;51.902;7.626;2023-08-06T04:26:00;10.68;;;9.68;;
26774;SDS011;14362;51.902;7.626;2023-08-06T04:30:02;9.93;;;9.07;;
26774;SDS011;14362;51.902;7.626;2023-08-06T04:34:03;14.13;;;10.55;;
26774;SDS011;14362;51.902;7.626;2023-08-06T04:38:06;11.45;;;9.98;;
26774;SDS011;14362;51.902;7.626;2023-08-06T04:42:08;10.27;;;9.25;;
26774;SDS011;14362;51.902;7.626;2023-08-06T04:46:09;13.82;;;10.45;;
26774;SDS011;14362;51.902;7.626;2023-08-06T04:50:10;14.00;;;10.10;;
26774;SDS011;14362;51.902;7.626;2023-08-06T04:54:13;10.48;;;9.48;;
26774;SDS011;14362;51.902;7.626;2023-08-06T04:58:15;11.73;;;9.77;;
26774;SDS011;14362;51.902;7.626;2023-08-06T05:02:16;10.68;;;9.57;;
26774;SDS011;14362;51.902;7.626;2023-08-06T05:06:18;10.45;;;9.38;;
26774;SDS011;14362;51.902;7.626;2023-08-06T05:10:20;12.15;;;9.25;;
26774;SDS011;14362;51.902;7.626;2023-08-06T05:14:22;10.10;;;9.10;;
26774;SDS011;14362;51.902;7.626;2023-08-06T05:18:23;9.32;;;8.40;;
26774;SDS011;14362;51.902;7.626;2023-08-06T05:22:25;10.13;;;9.15;;
26774;SDS011;14362;51.902;7.626;2023-08-06T05:26:27;9.90;;;8.90;;
26774;SDS011;14362;51.902;7.626;2023-08-06T05:30:29;10.00;;;8.98;;
26774;SDS011;14362;51.902;7.626;2023-08-06T05:34:30;9.50;;;8.60;;
26774;SDS011;14362;51.902;7.626;2023-08-06T05:38:32;10.95;;;8.75;;
26774;SDS011;14362;51.902;7.626;2023-08-06T05:42:34;10.30;;;8.15;;
26774;SDS011;14362;51.902;7.626;2023-08-06T05:46:36;9.10;;;8.20;;
26774;SDS011;14362;51.902;7.626;2023-08-06T05:50:37;8.73;;;7.68;;
26774;SDS011;14362;51.902;7.626;2023-08-06T05:54:39;7.85;;;7.03;;
26774;SDS011;14362;51.902;7.626;2023-08-06T05:58:42;10.50;;;6.60;;
26774;SDS011;14362;51.902;7.626;2023-08-06T06:02:43;7.93;;;7.22;;
26774;SDS011;14362;51.902;7.626;2023-08-06T06:06:44;7.65;;;6.95;;
26774;SDS011;14362;51.902;7.626;2023-08-06T06:10:46;8.45;;;6.70;;
26774;SDS011;14362;51.902;7.626;2023-08-06T06:14:48;7.20;;;6.60;;
26774;SDS011;14362;51.902;7.626;2023-08-06T06:18:50;6.13;;;5.60;;
26774;SDS011;14362;51.902;7.626;2023-08-06T06:22:51;6.57;;;5.97;;
26774;SDS011;14362;51.902;7.626;2023-08-06T06:26:53;10.90;;;7.70;;
26774;SDS011;14362;51.902;7.626;2023-08-06T06:30:59;7.03;;;5.72;;
26774;SDS011;14362;51.902;7.626;2023-08-06T06:35:01;9.15;;;6.68;;
26774;SDS011;14362;51.902;7.626;2023-08-06T06:39:02;6.47;;;5.50;;
26774;SDS011;14362;51.902;7.626;2023-08-06T06:43:04;6.45;;;5.90;;
26774;SDS011;14362;51.902;7.626;2023-08-06T06:47:07;6.82;;;6.10;;
26774;SDS011;14362;51.902;7.626;2023-08-06T06:51:08;7.22;;;6.53;;
26774;SDS011;14362;51.902;7.626;2023-08-06T06:55:09;6.95;;;6.25;;
26774;SDS011;14362;51.902;7.626;2023-08-06T06:59:11;8.73;;;6.28;;
26774;SDS011;14362;51.902;7.626;2023-08-06T07:03:14;6.95;;;6.25;;
26774;SDS011;14362;51.902;7.626;2023-08-06T07:07:15;8.45;;;6.05;;
26774;SDS011;14362;51.902;7.626;2023-08-06T07:11:17;7.68;;;6.50;;
26774;SDS011;14362;51.902;7.626;2023-08-06T07:15:18;7.38;;;6.05;;
26774;SDS011;14362;51.902;7.626;2023-08-06T07:19:21;5.35;;;4.85;;
26774;SDS011;14362;51.902;7.626;2023-08-06T07:23:25;5.60;;;5.10;;
26774;SDS011;14362;51.902;7.626;2023-08-06T07:27:27;7.50;;;6.30;;
26774;SDS011;14362;51.902;7.626;2023-08-06T07:31:28;8.80;;;5.80;;
26774;SDS011;14362;51.902;7.626;2023-08-06T07:35:31;9.55;;;5.75;;
26774;SDS011;14362;51.902;7.626;2023-08-06T07:39:33;6.97;;;6.22;;
26774;SDS011;14362;51.902;7.626;2023-08-06T07:43:34;6.70;;;6.00;;
26774;SDS011;14362;51.902;7.626;2023-08-06T07:47:36;6.18;;;5.57;;
26774;SDS011;14362;51.902;7.626;2023-08-06T07:51:39;6.47;;;5.80;;
26774;SDS011;14362;51.902;7.626;2023-08-06T07:55:40;8.27;;;6.00;;
26774;SDS011;14362;51.902;7.626;2023-08-06T07:59:42;7.32;;;5.85;;
26774;SDS011;14362;51.902;7.626;2023-08-06T08:03:43;4.43;;;3.83;;
26774;SDS011;14362;51.902;7.626;2023-08-06T08:07:47;3.58;;;3.28;;
26774;SDS011;14362;51.902;7.626;2023-08-06T08:11:48;4.00;;;3.70;;
26774;SDS011;14362;51.902;7.626;2023-08-06T08:15:50;4.85;;;3.67;;
26774;SDS011;14362;51.902;7.626;2023-08-06T08:19:58;3.67;;;3.20;;
26774;SDS011;14362;51.902;7.626;2023-08-06T08:24:00;3.78;;;3.00;;
26774;SDS011;14362;51.902;7.626;2023-08-06T08:28:02;3.65;;;3.33;;
26774;SDS011;14362;51.902;7.626;2023-08-06T08:32:04;4.97;;;3.67;;
26774;SDS011;14362;51.902;7.626;2023-08-06T08:36:06;3.63;;;3.33;;
26774;SDS011;14362;51.902;7.626;2023-08-06T08:40:11;3.97;;;2.97;;
26774;SDS011;14362;51.902;7.626;2023-08-06T08:44:12;3.47;;;2.97;;
26774;SDS011;14362;51.902;7.626;2023-08-06T08:48:17;4.40;;;3.00;;
26774;SDS011;14362;51.902;7.626;2023-08-06T08:52:20;5.22;;;2.50;;
26774;SDS011;14362;51.902;7.626;2023-08-06T08:56:24;3.38;;;2.65;;
26774;SDS011;14362;51.902;7.626;2023-08-06T09:00:25;3.55;;;3.13;;
26774;SDS011;14362;51.902;7.626;2023-08-06T09:04:29;3.40;;;2.78;;
26774;SDS011;14362;51.902;7.626;2023-08-06T09:08:33;2.90;;;2.70;;
26774;SDS011;14362;51.902;7.626;2023-08-06T09:12:38;4.20;;;3.17;;
26774;SDS011;14362;51.902;7.626;2023-08-06T09:16:40;2.80;;;2.60;;
26774;SDS011;14362;51.902;7.626;2023-08-06T09:20:41;4.10;;;2.97;;
26774;SDS011;14362;51.902;7.626;2023-08-06T09:24:43;7.03;;;3.58;;
26774;SDS011;14362;51.902;7.626;2023-08-06T09:28:46;5.55;;;3.03;;
26774;SDS011;14362;51.902;7.626;2023-08-06T09:32:48;3.22;;;2.90;;
26774;SDS011;14362;51.902;7.626;2023-08-06T09:36:51;3.15;;;2.60;;
26774;SDS011;14362;51.902;7.626;2023-08-06T09:40:54;2.60;;;2.40;;
26774;SDS011;14362;51.902;7.626;2023-08-06T09:45:05;3.53;;;2.88;;
26774;SDS011;14362;51.902;7.626;2023-08-06T09:49:07;2.65;;;2.30;;
26774;SDS011;14362;51.902;7.626;2023-08-06T09:53:10;3.97;;;2.78;;
26774;SDS011;14362;51.902;7.626;2023-08-06T09:57:13;2.90;;;2.58;;
26774;SDS011;14362;51.902;7.626;2023-08-06T10:01:17;5.40;;;2.45;;
26774;SDS011;14362;51.902;7.626;2023-08-06T10:05:20;2.35;;;2.15;;
26774;SDS011;14362;51.902;7.626;2023-08-06T10:09:22;2.83;;;2.20;;
26774;SDS011;14362;51.902;7.626;2023-08-06T10:13:25;3.65;;;2.30;;
26774;SDS011;14362;51.902;7.626;2023-08-06T10:17:28;4.50;;;2.42;;
26774;SDS011;14362;51.902;7.626;2023-08-06T10:21:32;2.33;;;1.92;;
26774;SDS011;14362;51.902;7.626;2023-08-06T10:25:34;2.85;;;2.28;;
26774;SDS011;14362;51.902;7.626;2023-08-06T10:29:36;3.72;;;2.60;;
26774;SDS011;14362;51.902;7.626;2023-08-06T10:33:43;3.92;;;2.28;;
26774;SDS011;14362;51.902;7.626;2023-08-06T10:37:45;2.45;;;1.80;;
26774;SDS011;14362;51.902;7.626;2023-08-06T10:41:48;1.95;;;1.80;;
26774;SDS011;14362;51.902;7.626;2023-08-06T10:45:49;2.70;;;1.80;;
26774;SDS011;14362;51.902;7.626;2023-08-06T10:49:52;2.78;;;1.77;;
26774;SDS011;14362;51.902;7.626;2023-08-06T10:53:54;3.22;;;2.10;;
26774;SDS011;14362;51.902;7.626;2023-08-06T10:57:55;1.77;;;1.67;;
26774;SDS011;14362;51.902;7.626;2023-08-06T11:01:57;2.00;;;1.80;;
26774;SDS011;14362;51.902;7.626;2023-08-06T11:06:00;2.03;;;1.83;;
26774;SDS011;14362;51.902;7.626;2023-08-06T11:10:03;2.05;;;1.80;;
26774;SDS011;14362;51.902;7.626;2023-08-06T11:14:05;1.67;;;1.58;;
26774;SDS011;14362;51.902;7.626;2023-08-06T11:18:06;2.60;;;1.65;;
26774;SDS011;14362;51.902;7.626;2023-08-06T11:22:09;3.05;;;1.90;;
26774;SDS011;14362;51.902;7.626;2023-08-06T11:26:11;3.63;;;1.80;;
26774;SDS011;14362;51.902;7.626;2023-08-06T11:30:12;1.83;;;1.60;;
26774;SDS011;14362;51.902;7.626;2023-08-06T11:34:14;2.00;;;1.65;;
26774;SDS011;14362;51.902;7.626;2023-08-06T11:38:18;1.90;;;1.50;;
26774;SDS011;14362;51.902;7.626;2023-08-06T11:42:19;2.13;;;1.92;;
26774;SDS011;14362;51.902;7.626;2023-08-06T11:46:21;4.05;;;1.83;;
26774;SDS011;14362;51.902;7.626;2023-08-06T11:50:23;2.00;;;1.65;;
26774;SDS011;14362;51.902;7.626;2023-08-06T11:54:31;2.65;;;2.00;;
26774;SDS011;14362;51.902;7.626;2023-08-06T11:58:34;3.47;;;1.90;;
26774;SDS011;14362;51.902;7.626;2023-08-06T12:02:35;2.92;;;1.50;;
26774;SDS011;14362;51.902;7.626;2023-08-06T12:06:41;3.70;;;1.80;;
26774;SDS011;14362;51.902;7.626;2023-08-06T12:10:44;3.65;;;2.00;;
26774;SDS011;14362;51.902;7.626;2023-08-06T12:14:46;2.10;;;1.90;;
26774;SDS011;14362;51.902;7.626;2023-08-06T12:18:48;3.13;;;1.90;;
26774;SDS011;14362;51.902;7.626;2023-08-06T12:22:49;2.38;;;1.80;;
26774;SDS011;14362;51.902;7.626;2023-08-06T12:26:52;3.30;;;1.95;;
26774;SDS011;14362;51.902;7.626;2023-08-06T12:30:54;2.75;;;2.55;;
26774;SDS011;14362;51.902;7.626;2023-08-06T12:34:55;2.47;;;2.20;;
26774;SDS011;14362;51.902;7.626;2023-08-06T12:38:57;2.88;;;2.50;;
26774;SDS011;14362;51.902;7.626;2023-08-06T12:43:00;2.97;;;2.53;;
26774;SDS011;14362;51.902;7.626;2023-08-06T12:47:01;3.90;;;2.72;;
26774;SDS011;14362;51.902;7.626;2023-08-06T12:51:02;5.60;;;3.83;;
26774;SDS011;14362;51.902;7.626;2023-08-06T12:55:04;5.95;;;4.00;;
26774;SDS011;14362;51.902;7.626;2023-08-06T12:59:07;6.03;;;4.32;;
26774;SDS011;14362;51.902;7.626;2023-08-06T13:03:08;4.70;;;3.50;;
26774;SDS011;14362;51.902;7.626;2023-08-06T13:07:10;4.15;;;3.25;;
26774;SDS011;14362;51.902;7.626;2023-08-06T13:11:11;3.83;;;3.47;;
26774;SDS011;14362;51.902;7.626;2023-08-06T13:15:15;4.15;;;3.75;;
26774;SDS011;14362;51.902;7.626;2023-08-06T13:19:17;4.88;;;4.25;;
26774;SDS011;14362;51.902;7.626;2023-08-06T13:23:18;4.93;;;4.40;;
26774;SDS011;14362;51.902;7.626;2023-08-06T13:27:20;5.30;;;4.80;;
26774;SDS011;14362;51.902;7.626;2023-08-06T13:31:22;7.28;;;4.93;;
26774;SDS011;14362;51.902;7.626;2023-08-06T13:35:24;4.97;;;4.57;;
26774;SDS011;14362;51.902;7.626;2023-08-06T13:39:25;5.03;;;4.35;;
26774;SDS011;14362;51.902;7.626;2023-08-06T13:43:27;4.95;;;4.50;;
26774;SDS011;14362;51.902;7.626;2023-08-06T13:47:30;5.15;;;4.65;;
26774;SDS011;14362;51.902;7.626;2023-08-06T13:51:31;4.95;;;4.45;;
26774;SDS011;14362;51.902;7.626;2023-08-06T13:55:34;5.22;;;4.13;;
26774;SDS011;14362;51.902;7.626;2023-08-06T13:59:35;6.82;;;4.78;;
26774;SDS011;14362;51.902;7.626;2023-08-06T14:03:38;5.25;;;4.53;;
26774;SDS011;14362;51.902;7.626;2023-08-06T14:07:39;5.45;;;4.38;;
26774;SDS011;14362;51.902;7.626;2023-08-06T14:11:41;5.22;;;4.82;;
26774;SDS011;14362;51.902;7.626;2023-08-06T14:15:42;7.18;;;4.20;;
26774;SDS011;14362;51.902;7.626;2023-08-06T14:19:48;4.72;;;4.32;;
26774;SDS011;14362;51.902;7.626;2023-08-06T14:23:49;4.93;;;4.07;;
26774;SDS011;14362;51.902;7.626;2023-08-06T14:27:51;6.65;;;4.15;;
26774;SDS011;14362;51.902;7.626;2023-08-06T14:31:52;11.10;;;4.15;;
26774;SDS011;14362;51.902;7.626;2023-08-06T14:35:55;12.77;;;5.95;;
26774;SDS011;14362;51.902;7.626;2023-08-06T14:39:56;7.82;;;4.05;;
26774;SDS011;14362;51.902;7.626;2023-08-06T14:43:58;10.35;;;5.97;;
26774;SDS011;14362;51.902;7.626;2023-08-06T14:47:59;7.70;;;4.63;;
26774;SDS011;14362;51.902;7.626;2023-08-06T14:52:02;7.47;;;5.13;;
26774;SDS011;14362;51.902;7.626;2023-08-06T14:56:04;10.43;;;3.90;;
26774;SDS011;14362;51.902;7.626;2023-08-06T15:00:06;6.53;;;2.42;;
26774;SDS011;14362;51.902;7.626;2023-08-06T15:04:10;7.03;;;3.10;;
26774;SDS011;14362;51.902;7.626;2023-08-06T15:08:13;7.25;;;3.58;;
26774;SDS011;14362;51.902;7.626;2023-08-06T15:12:14;5.93;;;3.47;;
26774;SDS011;14362;51.902;7.626;2023-08-06T15:16:17;2.70;;;2.47;;
26774;SDS011;14362;51.902;7.626;2023-08-06T15:20:19;4.70;;;2.88;;
26774;SDS011;14362;51.902;7.626;2023-08-06T15:24:21;3.33;;;2.78;;
26774;SDS011;14362;51.902;7.626;2023-08-06T15:28:23;4.97;;;3.92;;
26774;SDS011;14362;51.902;7.626;2023-08-06T15:32:24;5.75;;;3.30;;
26774;SDS011;14362;51.902;7.626;2023-08-06T15:36:27;3.15;;;2.53;;
26774;SDS011;14362;51.902;7.626;2023-08-06T15:40:30;2.45;;;2.25;;
26774;SDS011;14362;51.902;7.626;2023-08-06T15:44:31;2.35;;;2.15;;
26774;SDS011;14362;51.902;7.626;2023-08-06T15:48:33;2.63;;;2.22;;
26774;SDS011;14362;51.902;7.626;2023-08-06T15:52:34;2.75;;;2.30;;
26774;SDS011;14362;51.902;7.626;2023-08-06T15:56:37;2.95;;;2.63;;
26774;SDS011;14362;51.902;7.626;2023-08-06T16:00:39;4.75;;;2.65;;
26774;SDS011;14362;51.902;7.626;2023-08-06T16:04:40;3.08;;;2.58;;
26774;SDS011;14362;51.902;7.626;2023-08-06T16:08:42;4.07;;;2.35;;
26774;SDS011;14362;51.902;7.626;2023-08-06T16:12:44;3.10;;;2.38;;
26774;SDS011;14362;51.902;7.626;2023-08-06T16:16:46;3.15;;;2.78;;
26774;SDS011;14362;51.902;7.626;2023-08-06T16:20:48;3.95;;;2.70;;
26774;SDS011;14362;51.902;7.626;2023-08-06T16:24:49;3.22;;;2.72;;
26774;SDS011;14362;51.902;7.626;2023-08-06T16:28:52;2.95;;;2.33;;
26774;SDS011;14362;51.902;7.626;2023-08-06T16:32:53;3.00;;;2.70;;
26774;SDS011;14362;51.902;7.626;2023-08-06T16:36:56;3.05;;;2.83;;
26774;SDS011;14362;51.902;7.626;2023-08-06T16:40:57;3.30;;;3.00;;
26774;SDS011;14362;51.902;7.626;2023-08-06T16:45:00;3.95;;;3.40;;
26774;SDS011;14362;51.902;7.626;2023-08-06T16:49:02;3.60;;;3.30;;
26774;SDS011;14362;51.902;7.626;2023-08-06T16:53:04;4.28;;;3.58;;
26774;SDS011;14362;51.902;7.626;2023-08-06T16:57:05;5.05;;;4.03;;
26774;SDS011;14362;51.902;7.626;2023-08-06T17:01:08;6.82;;;5.38;;
26774;SDS011;14362;51.902;7.626;2023-08-06T17:05:10;6.07;;;5.57;;
26774;SDS011;14362;51.902;7.626;2023-08-06T17:09:11;6.38;;;5.78;;
26774;SDS011;14362;51.902;7.626;2023-08-06T17:13:13;7.50;;;6.35;;
26774;SDS011;14362;51.902;7.626;2023-08-06T17:17:16;8.38;;;6.03;;
26774;SDS011;14362;51.902;7.626;2023-08-06T17:21:17;5.78;;;5.10;;
26774;SDS011;14362;51.902;7.626;2023-08-06T17:25:19;8.20;;;5.45;;
26774;SDS011;14362;51.902;7.626;2023-08-06T17:29:22;7.35;;;5.20;;
26774;SDS011;14362;51.902;7.626;2023-08-06T17:33:25;6.07;;;5.47;;
26774;SDS011;14362;51.902;7.626;2023-08-06T17:37:26;5.25;;;4.75;;
26774;SDS011;14362;51.902;7.626;2023-08-06T17:41:28;5.22;;;4.72;;
26774;SDS011;14362;51.902;7.626;2023-08-06T17:45:30;4.93;;;4.53;;
26774;SDS011;14362;51.902;7.626;2023-08-06T17:49:32;4.38;;;3.97;;
26774;SDS011;14362;51.902;7.626;2023-08-06T17:53:34;4.65;;;4.25;;
26774;SDS011;14362;51.902;7.626;2023-08-06T17:57:35;5.38;;;4.00;;
26774;SDS011;14362;51.902;7.626;2023-08-06T18:01:37;5.50;;;3.92;;
26774;SDS011;14362;51.902;7.626;2023-08-06T18:05:40;3.53;;;3.20;;
26774;SDS011;14362;51.902;7.626;2023-08-06T18:09:41;3.70;;;3.15;;
26774;SDS011;14362;51.902;7.626;2023-08-06T18:13:43;2.80;;;2.13;;
26774;SDS011;14362;51.902;7.626;2023-08-06T18:17:45;2.20;;;2.00;;
26774;SDS011;14362;51.902;7.626;2023-08-06T18:21:48;1.85;;;1.75;;
26774;SDS011;14362;51.902;7.626;2023-08-06T18:25:49;2.10;;;1.70;;
26774;SDS011;14362;51.902;7.626;2023-08-06T18:29:51;1.80;;;1.70;;
26774;SDS011;14362;51.902;7.626;2023-08-06T18:33:52;2.20;;;2.00;;
26774;SDS011;14362;51.902;7.626;2023-08-06T18:37:55;2.22;;;2.03;;
26774;SDS011;14362;51.902;7.626;2023-08-06T18:41:58;2.05;;;1.92;;
26774;SDS011;14362;51.902;7.626;2023-08-06T18:46:00;2.38;;;2.17;;
26774;SDS011;14362;51.902;7.626;2023-08-06T18:50:01;3.92;;;2.50;;
26774;SDS011;14362;51.902;7.626;2023-08-06T18:54:04;2.45;;;2.25;;
26774;SDS011;14362;51.902;7.626;2023-08-06T18:58:06;3.38;;;2.50;;
26774;SDS011;14362;51.902;7.626;2023-08-06T19:02:09;3.55;;;3.25;;
26774;SDS011;14362;51.902;7.626;2023-08-06T19:06:10;4.63;;;3.58;;
26774;SDS011;14362;51.902;7.626;2023-08-06T19:10:13;4.30;;;3.90;;
26774;SDS011;14362;51.902;7.626;2023-08-06T19:14:14;4.68;;;3.92;;
26774;SDS011;14362;51.902;7.626;2023-08-06T19:18:17;6.28;;;3.92;;
26774;SDS011;14362;51.902;7.626;2023-08-06T19:22:19;5.60;;;3.20;;
26774;SDS011;14362;51.902;7.626;2023-08-06T19:26:22;6.55;;;3.47;;
26774;SDS011;14362;51.902;7.626;2023-08-06T19:30:23;7.07;;;3.13;;
26774;SDS011;14362;51.902;7.626;2023-08-06T19:34:25;4.15;;;2.65;;
26774;SDS011;14362;51.902;7.626;2023-08-06T19:38:26;4.85;;;2.60;;
26774;SDS011;14362;51.902;7.626;2023-08-06T19:42:29;6.55;;;2.90;;
26774;SDS011;14362;51.902;7.626;2023-08-06T19:46:30;4.97;;;2.17;;
26774;SDS011;14362;51.902;7.626;2023-08-06T19:50:32;4.57;;;2.08;;
26774;SDS011;14362;51.902;7.626;2023-08-06T19:54:34;9.00;;;2.30;;
26774;SDS011;14362;51.902;7.626;2023-08-06T19:58:37;6.22;;;2.50;;
26774;SDS011;14362;51.902;7.626;2023-08-06T20:02:39;7.90;;;2.22;;
26774;SDS011;14362;51.902;7.626;2023-08-06T20:06:40;5.28;;;2.00;;
26774;SDS011;14362;51.902;7.626;2023-08-06T20:10:43;4.65;;;1.70;;
26774;SDS011;14362;51.902;7.626;2023-08-06T20:14:48;6.28;;;1.95;;
26774;SDS011;14362;51.902;7.626;2023-08-06T20:18:49;4.53;;;1.90;;
26774;SDS011;14362;51.902;7.626;2023-08-06T20:22:51;3.83;;;1.70;;
26774;SDS011;14362;51.902;7.626;2023-08-06T20:26:52;7.50;;;2.13;;
26774;SDS011;14362;51.902;7.626;2023-08-06T20:30:55;7.03;;;1.60;;
26774;SDS011;14362;51.902;7.626;2023-08-06T20:34:56;7.38;;;2.13;;
26774;SDS011;14362;51.902;7.626;2023-08-06T20:38:58;4.20;;;1.42;;
26774;SDS011;14362;51.902;7.626;2023-08-06T20:42:59;5.88;;;1.30;;
26774;SDS011;14362;51.902;7.626;2023-08-06T20:47:03;6.13;;;1.30;;
26774;SDS011;14362;51.902;7.626;2023-08-06T20:51:05;6.57;;;1.50;;
26774;SDS011;14362;51.902;7.626;2023-08-06T20:55:07;3.80;;;1.38;;
26774;SDS011;14362;51.902;7.626;2023-08-06T20:59:08;4.88;;;1.38;;
26774;SDS011;14362;51.902;7.626;2023-08-06T21:03:11;5.20;;;1.30;;
26774;SDS011;14362;51.902;7.626;2023-08-06T21:07:12;5.22;;;1.23;;
26774;SDS011;14362;51.902;7.626;2023-08-06T21:11:14;6.10;;;1.48;;
26774;SDS011;14362;51.902;7.626;2023-08-06T21:15:16;6.10;;;1.52;;
26774;SDS011;14362;51.902;7.626;2023-08-06T21:19:19;6.47;;;1.50;;
26774;SDS011;14362;51.902;7.626;2023-08-06T21:23:20;6.45;;;1.70;;
26774;SDS011;14362;51.902;7.626;2023-08-06T21:27:23;4.72;;;2.00;;
26774;SDS011;14362;51.902;7.626;2023-08-06T21:31:25;10.45;;;2.67;;
26774;SDS011;14362;51.902;7.626;2023-08-06T21:35:28;5.55;;;1.67;;
26774;SDS011;14362;51.902;7.626;2023-08-06T21:39:29;5.88;;;1.77;;
26774;SDS011;14362;51.902;7.626;2023-08-06T21:43:31;6.22;;;1.73;;
26774;SDS011;14362;51.902;7.626;2023-08-06T21:47:34;7.32;;;1.52;;
26774;SDS011;14362;51.902;7.626;2023-08-06T21:51:36;8.00;;;2.05;;
26774;SDS011;14362;51.902;7.626;2023-08-06T21:55:38;7.07;;;2.10;;
26774;SDS011;14362;51.902;7.626;2023-08-06T21:59:39;8.38;;;2.15;;
26774;SDS011;14362;51.902;7.626;2023-08-06T22:03:41;6.93;;;2.50;;
26774;SDS011;14362;51.902;7.626;2023-08-06T22:07:45;8.45;;;2.55;;
26774;SDS011;14362;51.902;7.626;2023-08-06T22:11:46;6.55;;;2.63;;
26774;SDS011;14362;51.902;7.626;2023-08-06T22:15:48;8.80;;;2.63;;
26774;SDS011;14362;51.902;7.626;2023-08-06T22:19:49;7.07;;;2.30;;
26774;SDS011;14362;51.902;7.626;2023-08-06T22:23:52;8.68;;;2.90;;
26774;SDS011;14362;51.902;7.626;2023-08-06T22:27:54;8.48;;;2.53;;
26774;SDS011;14362;51.902;7.626;2023-08-06T22:31:55;6.53;;;2.63;;
26774;SDS011;14362;51.902;7.626;2023-08-06T22:35:56;7.30;;;3.65;;
26774;SDS011;14362;51.902;7.626;2023-08-06T22:39:59;6.78;;;3.22;;
26774;SDS011;14362;51.902;7.626;2023-08-06T22:44:03;9.63;;;3.38;;
26774;SDS011;14362;51.902;7.626;2023-08-06T22:48:04;5.88;;;3.20;;
26774;SDS011;14362;51.902;7.626;2023-08-06T22:52:06;9.98;;;3.80;;
26774;SDS011;14362;51.902;7.626;2023-08-06T22:56:09;10.10;;;3.47;;
26774;SDS011;14362;51.902;7.626;2023-08-06T23:00:11;7.18;;;3.47;;
26774;SDS011;14362;51.902;7.626;2023-08-06T23:04:13;8.70;;;4.13;;
26774;SDS011;14362;51.902;7.626;2023-08-06T23:08:14;6.07;;;3.42;;
26774;SDS011;14362;51.902;7.626;2023-08-06T23:12:17;7.03;;;3.60;;
26774;SDS011;14362;51.902;7.626;2023-08-06T23:16:19;7.88;;;3.22;;
26774;SDS011;14362;51.902;7.626;2023-08-06T23:20:20;5.00;;;3.13;;
26774;SDS011;14362;51.902;7.626;2023-08-06T23:24:21;9.75;;;3.50;;
26774;SDS011;14362;51.902;7.626;2023-08-06T23:28:27;6.88;;;3.20;;
26774;SDS011;14362;51.902;7.626;2023-08-06T23:32:29;7.38;;;3.70;;
26774;SDS011;14362;51.902;7.626;2023-08-06T23:36:31;6.53;;;3.70;;
26774;SDS011;14362;51.902;7.626;2023-08-06T23:40:33;9.85;;;4.30;;
26774;SDS011;14362;51.902;7.626;2023-08-06T23:44:35;3.63;;;3.10;;
26774;SDS011;14362;51.902;7.626;2023-08-06T23:48:37;5.35;;;3.72;;
26774;SDS011;14362;51.902;7.626;2023-08-06T23:52:38;5.22;;;3.40;;
26774;SDS011;14362;51.902;7.626;2023-08-06T23:56:40;4.57;;;3.30;;
